sensor_id;sensor_type;location;lat;lon;timestamp;P1;durP1;ratioP1;P2;durP2;ratioP2
9270;SDS011;4673;53.458;9.940;2022-11-20T00:01:20;0.20;;;0.20;;
9270;SDS011;4673;53.458;9.940;2022-11-20T00:03:51;0.20;;;0.20;;
9270;SDS011;4673;53.458;9.940;2022-11-20T00:06:18;0.20;;;0.20;;
9270;SDS011;4673;53.458;9.940;2022-11-20T00:09:22;0.20;;;0.20;;
9270;SDS011;4673;53.458;9.940;2022-11-20T00:11:48;0.20;;;0.20;;
9270;SDS011;4673;53.458;9.940;2022-11-20T00:14:13;0.20;;;0.20;;
9270;SDS011;4673;53.458;9.940;2022-11-20T00:16:39;0.20;;;0.20;;
9270;SDS011;4673;53.458;9.940;2022-11-20T00:19:05;0.20;;;0.20;;
9270;SDS011;4673;53.458;9.940;2022-11-20T00:21:31;0.20;;;0.20;;
9270;SDS011;4673;53.458;9.940;2022-11-20T00:26:56;0.20;;;0.20;;
9270;SDS011;4673;53.458;9.940;2022-11-20T00:29:25;0.20;;;0.20;;
9270;SDS011;4673;53.458;9.940;2022-11-20T00:31:50;0.20;;;0.20;;
9270;SDS011;4673;53.458;9.940;2022-11-20T00:37:13;0.20;;;0.20;;
9270;SDS011;4673;53.458;9.940;2022-11-20T00:39:39;0.20;;;0.20;;
9270;SDS011;4673;53.458;9.940;2022-11-20T00:42:04;0.20;;;0.20;;
9270;SDS011;4673;53.458;9.940;2022-11-20T00:44:36;0.20;;;0.20;;
9270;SDS011;4673;53.458;9.940;2022-11-20T00:47:08;0.20;;;0.20;;
9270;SDS011;4673;53.458;9.940;2022-11-20T00:49:34;0.20;;;0.20;;
9270;SDS011;4673;53.458;9.940;2022-11-20T00:51:59;0.20;;;0.20;;
9270;SDS011;4673;53.458;9.940;2022-11-20T00:54:25;0.20;;;0.20;;
9270;SDS011;4673;53.458;9.940;2022-11-20T00:56:54;0.20;;;0.20;;
9270;SDS011;4673;53.458;9.940;2022-11-20T00:59:32;0.20;;;0.20;;
9270;SDS011;4673;53.458;9.940;2022-11-20T01:01:57;2.73;;;2.73;;
9270;SDS011;4673;53.458;9.940;2022-11-20T01:04:23;0.20;;;0.20;;
9270;SDS011;4673;53.458;9.940;2022-11-20T01:06:48;0.20;;;0.20;;
9270;SDS011;4673;53.458;9.940;2022-11-20T01:09:14;0.20;;;0.20;;
9270;SDS011;4673;53.458;9.940;2022-11-20T01:11:41;0.20;;;0.20;;
9270;SDS011;4673;53.458;9.940;2022-11-20T01:14:14;0.20;;;0.20;;
9270;SDS011;4673;53.458;9.940;2022-11-20T01:16:42;0.20;;;0.20;;
9270;SDS011;4673;53.458;9.940;2022-11-20T01:19:19;0.20;;;0.20;;
9270;SDS011;4673;53.458;9.940;2022-11-20T01:21:48;0.20;;;0.20;;
9270;SDS011;4673;53.458;9.940;2022-11-20T01:24:15;0.20;;;0.20;;
9270;SDS011;4673;53.458;9.940;2022-11-20T01:26:49;0.20;;;0.20;;
9270;SDS011;4673;53.458;9.940;2022-11-20T01:29:20;0.20;;;0.20;;
9270;SDS011;4673;53.458;9.940;2022-11-20T01:31:56;0.20;;;0.20;;
9270;SDS011;4673;53.458;9.940;2022-11-20T01:34:22;0.17;;;0.17;;
9270;SDS011;4673;53.458;9.940;2022-11-20T01:36:51;0.20;;;0.20;;
9270;SDS011;4673;53.458;9.940;2022-11-20T01:39:19;0.20;;;0.20;;
9270;SDS011;4673;53.458;9.940;2022-11-20T01:41:46;0.20;;;0.20;;
9270;SDS011;4673;53.458;9.940;2022-11-20T01:48:00;0.20;;;0.20;;
9270;SDS011;4673;53.458;9.940;2022-11-20T01:50:09;0.20;;;0.20;;
9270;SDS011;4673;53.458;9.940;2022-11-20T01:53:06;0.20;;;0.20;;
9270;SDS011;4673;53.458;9.940;2022-11-20T01:55:36;0.20;;;0.20;;
9270;SDS011;4673;53.458;9.940;2022-11-20T01:58:06;0.20;;;0.20;;
9270;SDS011;4673;53.458;9.940;2022-11-20T02:00:32;0.20;;;0.20;;
9270;SDS011;4673;53.458;9.940;2022-11-20T02:02:58;0.20;;;0.20;;
9270;SDS011;4673;53.458;9.940;2022-11-20T02:05:45;0.20;;;0.20;;
9270;SDS011;4673;53.458;9.940;2022-11-20T02:08:35;0.20;;;0.20;;
9270;SDS011;4673;53.458;9.940;2022-11-20T02:11:01;0.20;;;0.20;;
9270;SDS011;4673;53.458;9.940;2022-11-20T02:13:27;0.20;;;0.20;;
9270;SDS011;4673;53.458;9.940;2022-11-20T02:16:13;0.20;;;0.20;;
9270;SDS011;4673;53.458;9.940;2022-11-20T02:18:45;0.20;;;0.20;;
9270;SDS011;4673;53.458;9.940;2022-11-20T02:26:52;0.20;;;0.20;;
9270;SDS011;4673;53.458;9.940;2022-11-20T02:29:19;0.20;;;0.20;;
9270;SDS011;4673;53.458;9.940;2022-11-20T02:31:51;0.20;;;0.20;;
9270;SDS011;4673;53.458;9.940;2022-11-20T02:34:19;0.20;;;0.20;;
9270;SDS011;4673;53.458;9.940;2022-11-20T02:36:45;0.20;;;0.20;;
9270;SDS011;4673;53.458;9.940;2022-11-20T02:39:13;0.20;;;0.20;;
9270;SDS011;4673;53.458;9.940;2022-11-20T02:41:41;0.20;;;0.20;;
9270;SDS011;4673;53.458;9.940;2022-11-20T02:44:07;0.20;;;0.20;;
9270;SDS011;4673;53.458;9.940;2022-11-20T02:46:33;0.20;;;0.20;;
9270;SDS011;4673;53.458;9.940;2022-11-20T02:49:00;0.20;;;0.20;;
9270;SDS011;4673;53.458;9.940;2022-11-20T02:51:28;0.30;;;0.30;;
9270;SDS011;4673;53.458;9.940;2022-11-20T02:53:53;0.20;;;0.20;;
9270;SDS011;4673;53.458;9.940;2022-11-20T02:56:19;0.20;;;0.20;;
9270;SDS011;4673;53.458;9.940;2022-11-20T02:58:45;0.20;;;0.20;;
9270;SDS011;4673;53.458;9.940;2022-11-20T03:01:11;0.20;;;0.20;;
9270;SDS011;4673;53.458;9.940;2022-11-20T03:03:37;0.20;;;0.20;;
9270;SDS011;4673;53.458;9.940;2022-11-20T03:06:02;0.20;;;0.20;;
9270;SDS011;4673;53.458;9.940;2022-11-20T03:08:28;0.20;;;0.20;;
9270;SDS011;4673;53.458;9.940;2022-11-20T03:10:54;0.20;;;0.20;;
9270;SDS011;4673;53.458;9.940;2022-11-20T03:13:19;0.20;;;0.20;;
9270;SDS011;4673;53.458;9.940;2022-11-20T03:15:45;0.20;;;0.20;;
9270;SDS011;4673;53.458;9.940;2022-11-20T03:18:10;0.20;;;0.20;;
9270;SDS011;4673;53.458;9.940;2022-11-20T03:20:38;0.20;;;0.20;;
9270;SDS011;4673;53.458;9.940;2022-11-20T03:23:04;0.20;;;0.20;;
9270;SDS011;4673;53.458;9.940;2022-11-20T03:25:29;0.20;;;0.20;;
9270;SDS011;4673;53.458;9.940;2022-11-20T03:27:55;0.20;;;0.20;;
9270;SDS011;4673;53.458;9.940;2022-11-20T03:30:21;0.20;;;0.20;;
9270;SDS011;4673;53.458;9.940;2022-11-20T03:32:47;0.20;;;0.20;;
9270;SDS011;4673;53.458;9.940;2022-11-20T03:35:13;0.20;;;0.20;;
9270;SDS011;4673;53.458;9.940;2022-11-20T03:37:38;0.20;;;0.20;;
9270;SDS011;4673;53.458;9.940;2022-11-20T03:40:04;0.20;;;0.20;;
9270;SDS011;4673;53.458;9.940;2022-11-20T03:42:31;0.20;;;0.20;;
9270;SDS011;4673;53.458;9.940;2022-11-20T03:45:15;0.20;;;0.20;;
9270;SDS011;4673;53.458;9.940;2022-11-20T03:47:42;0.20;;;0.20;;
9270;SDS011;4673;53.458;9.940;2022-11-20T03:50:09;0.20;;;0.20;;
9270;SDS011;4673;53.458;9.940;2022-11-20T03:52:36;0.20;;;0.20;;
9270;SDS011;4673;53.458;9.940;2022-11-20T03:55:01;0.20;;;0.20;;
9270;SDS011;4673;53.458;9.940;2022-11-20T03:57:27;0.20;;;0.20;;
9270;SDS011;4673;53.458;9.940;2022-11-20T03:59:53;0.20;;;0.20;;
9270;SDS011;4673;53.458;9.940;2022-11-20T04:02:18;0.20;;;0.20;;
9270;SDS011;4673;53.458;9.940;2022-11-20T04:04:44;0.87;;;0.87;;
9270;SDS011;4673;53.458;9.940;2022-11-20T04:07:10;0.20;;;0.20;;
9270;SDS011;4673;53.458;9.940;2022-11-20T04:09:35;0.20;;;0.20;;
9270;SDS011;4673;53.458;9.940;2022-11-20T04:12:01;0.20;;;0.20;;
9270;SDS011;4673;53.458;9.940;2022-11-20T04:14:27;0.20;;;0.20;;
9270;SDS011;4673;53.458;9.940;2022-11-20T04:16:52;0.20;;;0.20;;
9270;SDS011;4673;53.458;9.940;2022-11-20T04:19:18;0.20;;;0.20;;
9270;SDS011;4673;53.458;9.940;2022-11-20T04:21:43;0.20;;;0.20;;
9270;SDS011;4673;53.458;9.940;2022-11-20T04:24:09;0.20;;;0.20;;
9270;SDS011;4673;53.458;9.940;2022-11-20T04:26:35;0.20;;;0.20;;
9270;SDS011;4673;53.458;9.940;2022-11-20T04:29:02;0.20;;;0.20;;
9270;SDS011;4673;53.458;9.940;2022-11-20T04:31:29;0.20;;;0.20;;
9270;SDS011;4673;53.458;9.940;2022-11-20T04:33:59;0.20;;;0.20;;
9270;SDS011;4673;53.458;9.940;2022-11-20T04:36:26;0.17;;;0.17;;
9270;SDS011;4673;53.458;9.940;2022-11-20T04:38:53;0.20;;;0.20;;
9270;SDS011;4673;53.458;9.940;2022-11-20T04:41:21;0.20;;;0.20;;
9270;SDS011;4673;53.458;9.940;2022-11-20T04:43:48;0.20;;;0.20;;
9270;SDS011;4673;53.458;9.940;2022-11-20T04:46:15;0.20;;;0.20;;
9270;SDS011;4673;53.458;9.940;2022-11-20T04:48:46;0.20;;;0.20;;
9270;SDS011;4673;53.458;9.940;2022-11-20T04:51:12;0.20;;;0.20;;
9270;SDS011;4673;53.458;9.940;2022-11-20T04:53:38;0.20;;;0.20;;
9270;SDS011;4673;53.458;9.940;2022-11-20T04:56:05;0.20;;;0.20;;
9270;SDS011;4673;53.458;9.940;2022-11-20T04:58:32;0.20;;;0.20;;
9270;SDS011;4673;53.458;9.940;2022-11-20T05:01:04;0.20;;;0.20;;
9270;SDS011;4673;53.458;9.940;2022-11-20T05:03:38;0.20;;;0.20;;
9270;SDS011;4673;53.458;9.940;2022-11-20T05:06:05;0.20;;;0.20;;
9270;SDS011;4673;53.458;9.940;2022-11-20T05:08:31;0.20;;;0.20;;
9270;SDS011;4673;53.458;9.940;2022-11-20T05:11:01;0.20;;;0.20;;
9270;SDS011;4673;53.458;9.940;2022-11-20T05:13:38;0.20;;;0.20;;
9270;SDS011;4673;53.458;9.940;2022-11-20T05:16:08;0.20;;;0.20;;
9270;SDS011;4673;53.458;9.940;2022-11-20T05:18:36;0.20;;;0.20;;
9270;SDS011;4673;53.458;9.940;2022-11-20T05:21:02;0.20;;;0.20;;
9270;SDS011;4673;53.458;9.940;2022-11-20T05:23:29;0.20;;;0.20;;
9270;SDS011;4673;53.458;9.940;2022-11-20T05:25:56;0.20;;;0.20;;
9270;SDS011;4673;53.458;9.940;2022-11-20T05:28:22;0.20;;;0.20;;
9270;SDS011;4673;53.458;9.940;2022-11-20T05:30:49;0.20;;;0.20;;
9270;SDS011;4673;53.458;9.940;2022-11-20T05:33:15;0.20;;;0.20;;
9270;SDS011;4673;53.458;9.940;2022-11-20T05:35:41;0.20;;;0.20;;
9270;SDS011;4673;53.458;9.940;2022-11-20T05:38:07;0.20;;;0.20;;
9270;SDS011;4673;53.458;9.940;2022-11-20T05:40:33;0.20;;;0.20;;
9270;SDS011;4673;53.458;9.940;2022-11-20T05:42:59;0.20;;;0.20;;
9270;SDS011;4673;53.458;9.940;2022-11-20T05:45:25;0.20;;;0.20;;
9270;SDS011;4673;53.458;9.940;2022-11-20T05:47:50;0.20;;;0.20;;
9270;SDS011;4673;53.458;9.940;2022-11-20T05:50:16;0.20;;;0.20;;
9270;SDS011;4673;53.458;9.940;2022-11-20T05:52:41;0.20;;;0.20;;
9270;SDS011;4673;53.458;9.940;2022-11-20T05:55:07;0.20;;;0.20;;
9270;SDS011;4673;53.458;9.940;2022-11-20T05:57:33;0.20;;;0.20;;
9270;SDS011;4673;53.458;9.940;2022-11-20T05:59:59;0.20;;;0.20;;
9270;SDS011;4673;53.458;9.940;2022-11-20T06:02:24;0.20;;;0.20;;
9270;SDS011;4673;53.458;9.940;2022-11-20T06:04:50;0.20;;;0.20;;
9270;SDS011;4673;53.458;9.940;2022-11-20T06:07:15;0.20;;;0.20;;
9270;SDS011;4673;53.458;9.940;2022-11-20T06:09:41;0.20;;;0.20;;
9270;SDS011;4673;53.458;9.940;2022-11-20T06:12:07;0.20;;;0.20;;
9270;SDS011;4673;53.458;9.940;2022-11-20T06:14:32;0.20;;;0.20;;
9270;SDS011;4673;53.458;9.940;2022-11-20T06:16:58;0.20;;;0.20;;
9270;SDS011;4673;53.458;9.940;2022-11-20T06:19:24;0.20;;;0.20;;
9270;SDS011;4673;53.458;9.940;2022-11-20T06:21:50;0.20;;;0.20;;
9270;SDS011;4673;53.458;9.940;2022-11-20T06:24:16;0.20;;;0.20;;
9270;SDS011;4673;53.458;9.940;2022-11-20T06:26:41;0.20;;;0.20;;
9270;SDS011;4673;53.458;9.940;2022-11-20T06:29:07;0.20;;;0.20;;
9270;SDS011;4673;53.458;9.940;2022-11-20T06:31:33;0.20;;;0.20;;
9270;SDS011;4673;53.458;9.940;2022-11-20T06:34:00;0.20;;;0.20;;
9270;SDS011;4673;53.458;9.940;2022-11-20T06:36:26;0.20;;;0.20;;
9270;SDS011;4673;53.458;9.940;2022-11-20T06:38:51;0.20;;;0.20;;
9270;SDS011;4673;53.458;9.940;2022-11-20T06:41:18;0.30;;;0.30;;
9270;SDS011;4673;53.458;9.940;2022-11-20T06:43:45;0.40;;;0.40;;
9270;SDS011;4673;53.458;9.940;2022-11-20T06:46:12;0.20;;;0.20;;
9270;SDS011;4673;53.458;9.940;2022-11-20T06:48:38;0.20;;;0.20;;
9270;SDS011;4673;53.458;9.940;2022-11-20T06:51:05;0.40;;;0.40;;
9270;SDS011;4673;53.458;9.940;2022-11-20T06:53:32;0.20;;;0.20;;
9270;SDS011;4673;53.458;9.940;2022-11-20T06:55:58;0.20;;;0.20;;
9270;SDS011;4673;53.458;9.940;2022-11-20T06:58:25;0.20;;;0.20;;
9270;SDS011;4673;53.458;9.940;2022-11-20T07:00:52;0.20;;;0.20;;
9270;SDS011;4673;53.458;9.940;2022-11-20T07:03:18;0.20;;;0.20;;
9270;SDS011;4673;53.458;9.940;2022-11-20T07:05:44;0.30;;;0.30;;
9270;SDS011;4673;53.458;9.940;2022-11-20T07:08:11;0.20;;;0.20;;
9270;SDS011;4673;53.458;9.940;2022-11-20T07:10:37;0.20;;;0.20;;
9270;SDS011;4673;53.458;9.940;2022-11-20T07:13:03;0.20;;;0.20;;
9270;SDS011;4673;53.458;9.940;2022-11-20T07:15:28;0.20;;;0.20;;
9270;SDS011;4673;53.458;9.940;2022-11-20T07:17:54;0.20;;;0.20;;
9270;SDS011;4673;53.458;9.940;2022-11-20T07:20:20;0.20;;;0.20;;
9270;SDS011;4673;53.458;9.940;2022-11-20T07:22:45;0.20;;;0.20;;
9270;SDS011;4673;53.458;9.940;2022-11-20T07:25:11;0.30;;;0.30;;
9270;SDS011;4673;53.458;9.940;2022-11-20T07:27:37;0.20;;;0.20;;
9270;SDS011;4673;53.458;9.940;2022-11-20T07:30:03;0.20;;;0.20;;
9270;SDS011;4673;53.458;9.940;2022-11-20T07:32:29;0.20;;;0.20;;
9270;SDS011;4673;53.458;9.940;2022-11-20T07:34:55;0.20;;;0.20;;
9270;SDS011;4673;53.458;9.940;2022-11-20T07:37:20;0.20;;;0.20;;
9270;SDS011;4673;53.458;9.940;2022-11-20T07:39:46;0.20;;;0.20;;
9270;SDS011;4673;53.458;9.940;2022-11-20T07:42:12;0.20;;;0.20;;
9270;SDS011;4673;53.458;9.940;2022-11-20T07:44:37;0.20;;;0.20;;
9270;SDS011;4673;53.458;9.940;2022-11-20T07:47:03;0.20;;;0.20;;
9270;SDS011;4673;53.458;9.940;2022-11-20T07:49:29;0.20;;;0.20;;
9270;SDS011;4673;53.458;9.940;2022-11-20T07:51:55;0.20;;;0.20;;
9270;SDS011;4673;53.458;9.940;2022-11-20T07:54:21;0.20;;;0.20;;
9270;SDS011;4673;53.458;9.940;2022-11-20T07:56:47;0.20;;;0.20;;
9270;SDS011;4673;53.458;9.940;2022-11-20T07:59:13;0.20;;;0.20;;
9270;SDS011;4673;53.458;9.940;2022-11-20T08:01:40;0.20;;;0.20;;
9270;SDS011;4673;53.458;9.940;2022-11-20T08:04:06;0.20;;;0.20;;
9270;SDS011;4673;53.458;9.940;2022-11-20T08:06:32;0.20;;;0.20;;
9270;SDS011;4673;53.458;9.940;2022-11-20T08:08:58;0.20;;;0.20;;
9270;SDS011;4673;53.458;9.940;2022-11-20T08:11:24;0.20;;;0.20;;
9270;SDS011;4673;53.458;9.940;2022-11-20T08:14:08;0.20;;;0.20;;
9270;SDS011;4673;53.458;9.940;2022-11-20T08:16:36;0.20;;;0.20;;
9270;SDS011;4673;53.458;9.940;2022-11-20T08:19:06;0.20;;;0.20;;
9270;SDS011;4673;53.458;9.940;2022-11-20T08:21:32;0.20;;;0.20;;
9270;SDS011;4673;53.458;9.940;2022-11-20T08:23:58;0.20;;;0.20;;
9270;SDS011;4673;53.458;9.940;2022-11-20T08:26:24;0.20;;;0.20;;
9270;SDS011;4673;53.458;9.940;2022-11-20T08:28:57;0.20;;;0.20;;
9270;SDS011;4673;53.458;9.940;2022-11-20T08:31:23;0.20;;;0.20;;
9270;SDS011;4673;53.458;9.940;2022-11-20T08:33:51;0.20;;;0.20;;
9270;SDS011;4673;53.458;9.940;2022-11-20T08:36:17;0.20;;;0.20;;
9270;SDS011;4673;53.458;9.940;2022-11-20T08:38:47;0.20;;;0.20;;
9270;SDS011;4673;53.458;9.940;2022-11-20T08:41:13;0.20;;;0.20;;
9270;SDS011;4673;53.458;9.940;2022-11-20T08:43:48;0.20;;;0.20;;
9270;SDS011;4673;53.458;9.940;2022-11-20T08:46:15;0.20;;;0.20;;
9270;SDS011;4673;53.458;9.940;2022-11-20T08:48:41;0.20;;;0.20;;
9270;SDS011;4673;53.458;9.940;2022-11-20T08:51:08;0.20;;;0.20;;
9270;SDS011;4673;53.458;9.940;2022-11-20T08:53:34;0.20;;;0.20;;
9270;SDS011;4673;53.458;9.940;2022-11-20T08:56:00;0.20;;;0.20;;
9270;SDS011;4673;53.458;9.940;2022-11-20T08:58:26;0.20;;;0.20;;
9270;SDS011;4673;53.458;9.940;2022-11-20T09:00:52;0.20;;;0.20;;
9270;SDS011;4673;53.458;9.940;2022-11-20T09:03:18;6.83;;;6.83;;
9270;SDS011;4673;53.458;9.940;2022-11-20T09:05:43;8.00;;;8.00;;
9270;SDS011;4673;53.458;9.940;2022-11-20T09:08:09;7.50;;;7.50;;
9270;SDS011;4673;53.458;9.940;2022-11-20T09:10:35;8.77;;;8.77;;
9270;SDS011;4673;53.458;9.940;2022-11-20T09:13:01;7.67;;;7.67;;
9270;SDS011;4673;53.458;9.940;2022-11-20T09:15:27;8.97;;;8.97;;
9270;SDS011;4673;53.458;9.940;2022-11-20T09:17:53;8.57;;;8.57;;
9270;SDS011;4673;53.458;9.940;2022-11-20T09:20:24;8.80;;;8.80;;
9270;SDS011;4673;53.458;9.940;2022-11-20T09:22:50;9.30;;;9.30;;
9270;SDS011;4673;53.458;9.940;2022-11-20T09:25:16;9.17;;;9.17;;
9270;SDS011;4673;53.458;9.940;2022-11-20T09:27:42;8.17;;;8.17;;
9270;SDS011;4673;53.458;9.940;2022-11-20T09:30:09;8.23;;;8.23;;
9270;SDS011;4673;53.458;9.940;2022-11-20T09:32:35;9.10;;;9.10;;
9270;SDS011;4673;53.458;9.940;2022-11-20T09:35:01;8.33;;;8.33;;
9270;SDS011;4673;53.458;9.940;2022-11-20T09:37:27;8.17;;;8.17;;
9270;SDS011;4673;53.458;9.940;2022-11-20T09:39:53;7.90;;;7.90;;
9270;SDS011;4673;53.458;9.940;2022-11-20T09:53:16;7.57;;;7.57;;
9270;SDS011;4673;53.458;9.940;2022-11-20T09:55:50;7.10;;;7.10;;
9270;SDS011;4673;53.458;9.940;2022-11-20T10:01:14;7.40;;;7.40;;
9270;SDS011;4673;53.458;9.940;2022-11-20T10:06:10;6.93;;;6.93;;
9270;SDS011;4673;53.458;9.940;2022-11-20T10:08:41;6.47;;;6.47;;
9270;SDS011;4673;53.458;9.940;2022-11-20T10:11:21;5.87;;;5.87;;
9270;SDS011;4673;53.458;9.940;2022-11-20T10:14:08;5.93;;;5.93;;
9270;SDS011;4673;53.458;9.940;2022-11-20T10:31:02;5.90;;;5.90;;
9270;SDS011;4673;53.458;9.940;2022-11-20T10:33:33;7.40;;;7.40;;
9270;SDS011;4673;53.458;9.940;2022-11-20T10:36:38;6.47;;;6.47;;
9270;SDS011;4673;53.458;9.940;2022-11-20T10:39:03;6.43;;;6.43;;
9270;SDS011;4673;53.458;9.940;2022-11-20T10:41:42;5.13;;;5.13;;
9270;SDS011;4673;53.458;9.940;2022-11-20T10:44:14;6.27;;;6.27;;
9270;SDS011;4673;53.458;9.940;2022-11-20T10:47:21;5.80;;;5.80;;
9270;SDS011;4673;53.458;9.940;2022-11-20T10:49:48;5.60;;;5.60;;
9270;SDS011;4673;53.458;9.940;2022-11-20T10:55:33;3.97;;;3.97;;
9270;SDS011;4673;53.458;9.940;2022-11-20T11:01:05;4.30;;;4.30;;
9270;SDS011;4673;53.458;9.940;2022-11-20T11:03:38;4.50;;;4.50;;
9270;SDS011;4673;53.458;9.940;2022-11-20T11:06:08;4.27;;;4.27;;
9270;SDS011;4673;53.458;9.940;2022-11-20T11:08:57;4.23;;;4.23;;
9270;SDS011;4673;53.458;9.940;2022-11-20T11:11:27;5.07;;;5.07;;
9270;SDS011;4673;53.458;9.940;2022-11-20T11:14:09;5.13;;;5.13;;
9270;SDS011;4673;53.458;9.940;2022-11-20T11:16:40;5.70;;;5.70;;
9270;SDS011;4673;53.458;9.940;2022-11-20T11:19:15;5.67;;;5.67;;
9270;SDS011;4673;53.458;9.940;2022-11-20T11:22:16;5.17;;;5.17;;
9270;SDS011;4673;53.458;9.940;2022-11-20T11:24:43;4.60;;;4.60;;
9270;SDS011;4673;53.458;9.940;2022-11-20T11:27:17;4.80;;;4.80;;
9270;SDS011;4673;53.458;9.940;2022-11-20T11:29:43;5.87;;;5.87;;
9270;SDS011;4673;53.458;9.940;2022-11-20T11:32:13;4.97;;;4.97;;
9270;SDS011;4673;53.458;9.940;2022-11-20T11:34:42;4.73;;;4.73;;
9270;SDS011;4673;53.458;9.940;2022-11-20T11:37:13;4.83;;;4.83;;
9270;SDS011;4673;53.458;9.940;2022-11-20T11:39:43;4.40;;;4.40;;
9270;SDS011;4673;53.458;9.940;2022-11-20T11:42:12;4.90;;;4.90;;
9270;SDS011;4673;53.458;9.940;2022-11-20T11:44:46;5.50;;;5.50;;
9270;SDS011;4673;53.458;9.940;2022-11-20T11:47:44;4.57;;;4.57;;
9270;SDS011;4673;53.458;9.940;2022-11-20T11:50:14;4.43;;;4.43;;
9270;SDS011;4673;53.458;9.940;2022-11-20T11:55:40;4.63;;;4.63;;
9270;SDS011;4673;53.458;9.940;2022-11-20T12:01:12;5.00;;;5.00;;
9270;SDS011;4673;53.458;9.940;2022-11-20T12:06:29;4.80;;;4.80;;
9270;SDS011;4673;53.458;9.940;2022-11-20T12:09:08;5.90;;;5.90;;
9270;SDS011;4673;53.458;9.940;2022-11-20T12:17:11;5.30;;;5.30;;
9270;SDS011;4673;53.458;9.940;2022-11-20T12:19:38;5.60;;;5.60;;
9270;SDS011;4673;53.458;9.940;2022-11-20T12:24:58;5.53;;;5.53;;
9270;SDS011;4673;53.458;9.940;2022-11-20T12:30:30;5.50;;;5.50;;
9270;SDS011;4673;53.458;9.940;2022-11-20T12:36:12;6.13;;;6.13;;
9270;SDS011;4673;53.458;9.940;2022-11-20T12:51:03;6.20;;;6.20;;
9270;SDS011;4673;53.458;9.940;2022-11-20T13:06:46;5.17;;;5.17;;
9270;SDS011;4673;53.458;9.940;2022-11-20T13:09:14;5.07;;;5.07;;
9270;SDS011;4673;53.458;9.940;2022-11-20T13:14:26;4.00;;;4.00;;
9270;SDS011;4673;53.458;9.940;2022-11-20T13:17:18;4.20;;;4.20;;
9270;SDS011;4673;53.458;9.940;2022-11-20T13:19:54;4.37;;;4.37;;
9270;SDS011;4673;53.458;9.940;2022-11-20T13:22:27;4.83;;;4.83;;
9270;SDS011;4673;53.458;9.940;2022-11-20T13:24:55;5.37;;;5.37;;
9270;SDS011;4673;53.458;9.940;2022-11-20T13:27:21;4.60;;;4.60;;
9270;SDS011;4673;53.458;9.940;2022-11-20T13:30:02;5.20;;;5.20;;
9270;SDS011;4673;53.458;9.940;2022-11-20T13:32:47;5.33;;;5.33;;
9270;SDS011;4673;53.458;9.940;2022-11-20T13:35:54;5.13;;;5.13;;
9270;SDS011;4673;53.458;9.940;2022-11-20T13:38:20;4.03;;;4.03;;
9270;SDS011;4673;53.458;9.940;2022-11-20T13:40:59;4.30;;;4.30;;
9270;SDS011;4673;53.458;9.940;2022-11-20T13:43:46;4.30;;;4.30;;
9270;SDS011;4673;53.458;9.940;2022-11-20T13:46:13;3.93;;;3.93;;
9270;SDS011;4673;53.458;9.940;2022-11-20T13:51:12;4.93;;;4.93;;
9270;SDS011;4673;53.458;9.940;2022-11-20T14:01:59;4.00;;;4.00;;
9270;SDS011;4673;53.458;9.940;2022-11-20T14:04:27;4.27;;;4.27;;
9270;SDS011;4673;53.458;9.940;2022-11-20T14:06:57;5.13;;;5.13;;
9270;SDS011;4673;53.458;9.940;2022-11-20T14:09:28;4.20;;;4.20;;
9270;SDS011;4673;53.458;9.940;2022-11-20T14:11:55;3.80;;;3.80;;
9270;SDS011;4673;53.458;9.940;2022-11-20T14:14:22;4.73;;;4.73;;
9270;SDS011;4673;53.458;9.940;2022-11-20T14:16:49;3.70;;;3.70;;
9270;SDS011;4673;53.458;9.940;2022-11-20T14:19:26;4.13;;;4.13;;
9270;SDS011;4673;53.458;9.940;2022-11-20T14:22:39;3.57;;;3.57;;
9270;SDS011;4673;53.458;9.940;2022-11-20T14:24:39;5.13;;;5.13;;
9270;SDS011;4673;53.458;9.940;2022-11-20T14:27:10;4.07;;;4.07;;
9270;SDS011;4673;53.458;9.940;2022-11-20T14:29:45;4.37;;;4.37;;
9270;SDS011;4673;53.458;9.940;2022-11-20T14:32:14;5.10;;;5.10;;
9270;SDS011;4673;53.458;9.940;2022-11-20T14:34:44;4.40;;;4.40;;
9270;SDS011;4673;53.458;9.940;2022-11-20T14:37:13;4.63;;;4.63;;
9270;SDS011;4673;53.458;9.940;2022-11-20T14:39:48;4.27;;;4.27;;
9270;SDS011;4673;53.458;9.940;2022-11-20T14:42:24;4.27;;;4.27;;
9270;SDS011;4673;53.458;9.940;2022-11-20T14:44:52;3.60;;;3.60;;
9270;SDS011;4673;53.458;9.940;2022-11-20T14:47:28;3.90;;;3.90;;
9270;SDS011;4673;53.458;9.940;2022-11-20T14:49:55;3.80;;;3.80;;
9270;SDS011;4673;53.458;9.940;2022-11-20T14:52:23;4.23;;;4.23;;
9270;SDS011;4673;53.458;9.940;2022-11-20T14:54:51;4.20;;;4.20;;
9270;SDS011;4673;53.458;9.940;2022-11-20T14:57:23;3.93;;;3.93;;
9270;SDS011;4673;53.458;9.940;2022-11-20T14:59:51;3.77;;;3.77;;
9270;SDS011;4673;53.458;9.940;2022-11-20T15:02:29;4.37;;;4.37;;
9270;SDS011;4673;53.458;9.940;2022-11-20T15:04:58;4.10;;;4.10;;
9270;SDS011;4673;53.458;9.940;2022-11-20T15:07:32;4.30;;;4.30;;
9270;SDS011;4673;53.458;9.940;2022-11-20T15:10:00;3.50;;;3.50;;
9270;SDS011;4673;53.458;9.940;2022-11-20T15:12:28;4.03;;;4.03;;
9270;SDS011;4673;53.458;9.940;2022-11-20T15:14:55;3.87;;;3.87;;
9270;SDS011;4673;53.458;9.940;2022-11-20T15:17:21;3.07;;;3.07;;
9270;SDS011;4673;53.458;9.940;2022-11-20T15:19:47;3.50;;;3.50;;
9270;SDS011;4673;53.458;9.940;2022-11-20T15:22:13;3.43;;;3.43;;
9270;SDS011;4673;53.458;9.940;2022-11-20T15:24:41;3.47;;;3.47;;
9270;SDS011;4673;53.458;9.940;2022-11-20T15:27:07;3.57;;;3.57;;
9270;SDS011;4673;53.458;9.940;2022-11-20T15:29:34;3.13;;;3.13;;
9270;SDS011;4673;53.458;9.940;2022-11-20T15:31:59;3.27;;;3.27;;
9270;SDS011;4673;53.458;9.940;2022-11-20T15:34:26;3.50;;;3.50;;
9270;SDS011;4673;53.458;9.940;2022-11-20T15:36:52;4.23;;;4.23;;
9270;SDS011;4673;53.458;9.940;2022-11-20T15:39:20;4.83;;;4.83;;
9270;SDS011;4673;53.458;9.940;2022-11-20T15:41:46;4.60;;;4.60;;
9270;SDS011;4673;53.458;9.940;2022-11-20T15:44:12;4.27;;;4.27;;
9270;SDS011;4673;53.458;9.940;2022-11-20T15:46:39;4.57;;;4.57;;
9270;SDS011;4673;53.458;9.940;2022-11-20T15:49:12;4.40;;;4.40;;
9270;SDS011;4673;53.458;9.940;2022-11-20T15:51:39;4.43;;;4.43;;
9270;SDS011;4673;53.458;9.940;2022-11-20T15:54:12;4.47;;;4.47;;
9270;SDS011;4673;53.458;9.940;2022-11-20T15:56:38;4.70;;;4.70;;
9270;SDS011;4673;53.458;9.940;2022-11-20T15:59:04;5.30;;;5.30;;
9270;SDS011;4673;53.458;9.940;2022-11-20T16:01:30;4.97;;;4.97;;
9270;SDS011;4673;53.458;9.940;2022-11-20T16:03:56;5.53;;;5.53;;
9270;SDS011;4673;53.458;9.940;2022-11-20T16:06:21;4.43;;;4.43;;
9270;SDS011;4673;53.458;9.940;2022-11-20T16:08:47;4.13;;;4.13;;
9270;SDS011;4673;53.458;9.940;2022-11-20T16:11:13;4.73;;;4.73;;
9270;SDS011;4673;53.458;9.940;2022-11-20T16:13:40;4.63;;;4.63;;
9270;SDS011;4673;53.458;9.940;2022-11-20T16:16:26;5.03;;;5.03;;
9270;SDS011;4673;53.458;9.940;2022-11-20T16:18:55;4.13;;;4.13;;
9270;SDS011;4673;53.458;9.940;2022-11-20T16:21:21;4.50;;;4.50;;
9270;SDS011;4673;53.458;9.940;2022-11-20T16:23:55;4.40;;;4.40;;
9270;SDS011;4673;53.458;9.940;2022-11-20T16:26:26;4.43;;;4.43;;
9270;SDS011;4673;53.458;9.940;2022-11-20T16:28:51;5.07;;;5.07;;
9270;SDS011;4673;53.458;9.940;2022-11-20T16:31:18;6.17;;;6.17;;
9270;SDS011;4673;53.458;9.940;2022-11-20T16:33:51;7.20;;;7.20;;
9270;SDS011;4673;53.458;9.940;2022-11-20T16:36:19;6.33;;;6.33;;
9270;SDS011;4673;53.458;9.940;2022-11-20T16:38:46;5.53;;;5.53;;
9270;SDS011;4673;53.458;9.940;2022-11-20T16:41:16;4.53;;;4.53;;
9270;SDS011;4673;53.458;9.940;2022-11-20T16:43:45;4.63;;;4.63;;
9270;SDS011;4673;53.458;9.940;2022-11-20T16:46:13;4.80;;;4.80;;
9270;SDS011;4673;53.458;9.940;2022-11-20T16:48:40;4.67;;;4.67;;
9270;SDS011;4673;53.458;9.940;2022-11-20T16:51:07;4.63;;;4.63;;
9270;SDS011;4673;53.458;9.940;2022-11-20T16:53:34;5.10;;;5.10;;
9270;SDS011;4673;53.458;9.940;2022-11-20T16:56:12;5.47;;;5.47;;
9270;SDS011;4673;53.458;9.940;2022-11-20T16:58:41;5.90;;;5.90;;
9270;SDS011;4673;53.458;9.940;2022-11-20T17:01:11;18.23;;;18.13;;
9270;SDS011;4673;53.458;9.940;2022-11-20T17:03:39;12.47;;;12.37;;
9270;SDS011;4673;53.458;9.940;2022-11-20T17:06:16;12.63;;;12.57;;
9270;SDS011;4673;53.458;9.940;2022-11-20T17:08:43;8.43;;;8.43;;
9270;SDS011;4673;53.458;9.940;2022-11-20T17:11:11;7.20;;;7.20;;
9270;SDS011;4673;53.458;9.940;2022-11-20T17:13:38;7.93;;;7.93;;
9270;SDS011;4673;53.458;9.940;2022-11-20T17:16:05;6.93;;;6.93;;
9270;SDS011;4673;53.458;9.940;2022-11-20T17:18:33;6.93;;;6.93;;
9270;SDS011;4673;53.458;9.940;2022-11-20T17:20:59;7.30;;;7.30;;